createdAt,value
2023-02-17T00:00:19.212Z,100809.38
2023-02-17T00:02:45.910Z,100803.25
2023-02-17T00:05:13.076Z,100808.53
2023-02-17T00:07:39.802Z,100793.59
2023-02-17T00:10:07.471Z,100803.31
2023-02-17T00:12:34.062Z,100803.41
2023-02-17T00:15:00.552Z,100793.72
2023-02-17T00:17:27.146Z,100794.63
2023-02-17T00:19:55.696Z,100801.66
2023-02-17T00:22:25.459Z,100792.03
2023-02-17T00:24:52.243Z,100792.91
2023-02-17T00:27:19.599Z,100801.66
2023-02-17T00:29:46.279Z,100798.13
2023-02-17T00:32:13.099Z,100799.91
2023-02-17T00:34:39.681Z,100795.56
2023-02-17T00:37:06.902Z,100788.56
2023-02-17T00:39:33.409Z,100795.59
2023-02-17T00:41:59.960Z,100798.25
2023-02-17T00:44:31.098Z,100787.81
2023-02-17T00:46:58.191Z,100793.06
2023-02-17T00:49:26.613Z,100793.06
2023-02-17T00:51:53.660Z,100790.47
2023-02-17T00:54:20.807Z,100797.50
2023-02-17T00:56:47.407Z,100786.94
2023-02-17T00:59:13.897Z,100787.81
2023-02-17T01:01:40.434Z,100787.88
2023-02-17T01:04:09.420Z,100773.81
2023-02-17T01:06:38.120Z,100777.47
2023-02-17T01:09:08.544Z,100781.84
2023-02-17T01:11:37.810Z,100767.72
2023-02-17T01:14:06.409Z,100770.38
2023-02-17T01:16:42.418Z,100766.91
2023-02-17T01:19:13.190Z,100761.63
2023-02-17T01:21:39.735Z,100764.28
2023-02-17T01:24:12.370Z,100752.81
2023-02-17T01:26:39.821Z,100759.00
2023-02-17T01:29:07.411Z,100752.84
2023-02-17T01:31:34.843Z,100743.19
2023-02-17T01:34:03.862Z,100739.69
2023-02-17T01:36:31.197Z,100737.91
2023-02-17T01:38:58.797Z,100744.06
2023-02-17T01:41:27.228Z,100733.56
2023-02-17T01:44:21.912Z,100730.03
2023-02-17T01:46:51.663Z,100719.47
2023-02-17T01:49:26.944Z,100708.91
2023-02-17T01:52:01.123Z,100704.56
2023-02-17T01:54:34.192Z,100702.00
2023-02-17T01:57:02.188Z,100698.50
2023-02-17T01:59:31.329Z,100689.69
2023-02-17T02:02:00.604Z,100682.69
2023-02-17T02:04:31.925Z,100685.31
2023-02-17T02:06:59.095Z,100675.66
2023-02-17T02:09:36.961Z,100678.28
2023-02-17T02:12:03.595Z,100670.38
2023-02-17T02:14:32.027Z,100670.38
2023-02-17T02:17:21.768Z,100674.81
2023-02-17T02:20:25.991Z,100680.09
2023-02-17T02:23:30.610Z,100670.38
2023-02-17T02:26:09.062Z,100665.97
2023-02-17T02:29:03.665Z,100668.63
2023-02-17T02:31:46.092Z,100676.56
2023-02-17T02:34:20.612Z,100674.78
2023-02-17T02:37:00.601Z,100675.66
2023-02-17T02:39:34.751Z,100678.34
2023-02-17T02:42:07.820Z,100675.66
2023-02-17T02:44:35.045Z,100665.09
2023-02-17T02:47:05.345Z,100662.53
2023-02-17T02:49:37.073Z,100657.19
2023-02-17T02:52:26.716Z,100649.25
2023-02-17T02:55:20.790Z,100643.94
2023-02-17T02:57:57.170Z,100636.91
2023-02-17T03:00:44.321Z,100628.06
2023-02-17T03:03:31.636Z,100628.03
2023-02-17T03:06:30.287Z,100629.81
2023-02-17T03:09:05.398Z,100627.22
2023-02-17T03:11:35.036Z,100626.34
2023-02-17T03:14:06.781Z,100625.47
2023-02-17T03:16:35.315Z,100616.66
2023-02-17T03:19:02.152Z,100612.25
2023-02-17T03:21:35.659Z,100616.63
2023-02-17T03:24:02.388Z,100601.69
2023-02-17T03:26:28.875Z,100601.66
2023-02-17T03:28:56.297Z,100605.16
2023-02-17T03:31:23.669Z,100603.41
2023-02-17T03:33:50.639Z,100601.66
2023-02-17T03:36:17.491Z,100606.03
2023-02-17T03:38:44.738Z,100598.09
2023-02-17T03:41:11.261Z,100595.47
2023-02-17T03:43:37.829Z,100590.19
2023-02-17T03:46:10.089Z,100585.81
2023-02-17T03:48:36.683Z,100587.63
2023-02-17T03:51:21.263Z,100581.53
2023-02-17T03:53:49.332Z,100581.53
2023-02-17T03:56:17.646Z,100590.34
2023-02-17T03:58:45.892Z,100591.28
2023-02-17T04:01:13.498Z,100585.13
2023-02-17T04:03:40.966Z,100582.50
2023-02-17T04:06:08.707Z,100575.47
2023-02-17T04:08:35.830Z,100570.22
2023-02-17T04:11:04.644Z,100573.75
2023-02-17T04:13:31.350Z,100567.63
2023-02-17T04:16:01.286Z,100565.91
2023-02-17T04:18:28.628Z,100564.16
2023-02-17T04:20:55.134Z,100565.91
2023-02-17T04:23:21.983Z,100578.19
2023-02-17T04:25:49.359Z,100575.53
2023-02-17T04:28:16.959Z,100574.63
2023-02-17T04:30:49.498Z,100569.41
2023-02-17T04:33:17.041Z,100566.81
2023-02-17T04:35:43.618Z,100564.19
2023-02-17T04:38:11.273Z,100566.81
2023-02-17T04:40:38.565Z,100563.28
2023-02-17T04:43:05.237Z,100569.47
2023-02-17T04:45:32.586Z,100566.81
2023-02-17T04:47:59.075Z,100565.94
2023-02-17T04:50:25.606Z,100557.16
2023-02-17T04:52:52.155Z,100557.16
2023-02-17T04:55:19.042Z,100565.06
2023-02-17T04:57:45.479Z,100554.44
2023-02-17T05:00:13.425Z,100560.63
2023-02-17T05:02:40.178Z,100554.44
2023-02-17T05:05:07.504Z,100562.38
2023-02-17T05:07:34.046Z,100555.31
2023-02-17T05:10:00.584Z,100555.31
2023-02-17T05:12:27.231Z,100557.06
2023-02-17T05:14:53.721Z,100549.16
2023-02-17T05:17:20.314Z,100549.09
2023-02-17T05:19:46.801Z,100552.66
2023-02-17T05:22:13.282Z,100546.50
2023-02-17T05:24:39.753Z,100545.66
2023-02-17T05:27:06.218Z,100540.41
2023-02-17T05:29:32.853Z,100531.63
2023-02-17T05:32:00.024Z,100534.25
2023-02-17T05:34:26.576Z,100533.44
2023-02-17T05:36:53.284Z,100528.19
2023-02-17T05:39:19.770Z,100530.84
2023-02-17T05:41:46.223Z,100520.25
2023-02-17T05:44:12.807Z,100517.63
2023-02-17T05:46:40.751Z,100508.88
2023-02-17T05:49:07.493Z,100507.16
2023-02-17T05:51:33.966Z,100504.56
2023-02-17T05:54:00.625Z,100501.03
2023-02-17T05:56:27.476Z,100502.81
2023-02-17T05:58:54.160Z,100502.00
2023-02-17T06:01:21.497Z,100502.00
2023-02-17T06:03:48.131Z,100490.59
2023-02-17T06:06:14.776Z,100497.66
2023-02-17T06:08:41.217Z,100493.25
2023-02-17T06:11:10.988Z,100491.53
2023-02-17T06:13:37.529Z,100491.56
2023-02-17T06:16:05.353Z,100497.75
2023-02-17T06:18:32.091Z,100493.38
2023-02-17T06:20:59.323Z,100499.56
2023-02-17T06:23:27.028Z,100489.94
2023-02-17T06:25:54.017Z,100489.06
2023-02-17T06:28:20.496Z,100484.69
2023-02-17T06:30:47.087Z,100485.66
2023-02-17T06:33:14.773Z,100486.56
2023-02-17T06:35:41.281Z,100481.31
2023-02-17T06:38:07.804Z,100474.31
2023-02-17T06:40:34.304Z,100479.66
2023-02-17T06:43:01.359Z,100477.03
2023-02-17T06:45:29.163Z,100481.50
2023-02-17T06:47:55.720Z,100484.13
2023-02-17T06:50:22.195Z,100480.63
2023-02-17T06:52:48.768Z,100477.09
2023-02-17T06:55:15.430Z,100472.72
2023-02-17T06:57:42.101Z,100471.88
2023-02-17T07:00:09.145Z,100466.63
2023-02-17T07:02:38.683Z,100464.88
2023-02-17T07:05:08.231Z,100458.81
2023-02-17T07:07:34.888Z,100453.97
2023-02-17T07:10:01.530Z,100449.91
2023-02-17T07:12:29.337Z,100451.09
2023-02-17T07:14:58.504Z,100454.84
2023-02-17T07:17:24.945Z,100446.16
2023-02-17T07:19:51.519Z,100432.00
2023-02-17T07:22:18.037Z,100440.78
2023-02-17T07:24:44.781Z,100451.34
2023-02-17T07:27:11.332Z,100455.69
2023-02-17T07:29:38.063Z,100454.75
2023-02-17T07:32:04.978Z,100460.88
2023-02-17T07:34:32.040Z,100452.94
2023-02-17T07:36:58.701Z,100458.22
2023-02-17T07:39:25.599Z,100447.63
2023-02-17T07:41:52.213Z,100442.31
2023-02-17T07:44:18.796Z,100431.69
2023-02-17T07:46:45.487Z,100427.28
2023-02-17T07:49:12.383Z,100422.00
2023-02-17T07:51:38.907Z,100409.69
2023-02-17T07:54:05.752Z,100405.28
2023-02-17T07:56:33.772Z,100400.00
2023-02-17T07:59:00.822Z,100403.56
2023-02-17T08:01:27.432Z,100407.97
2023-02-17T08:03:54.408Z,100406.22
2023-02-17T08:06:23.394Z,100386.84
2023-02-17T08:09:10.290Z,100395.72
2023-02-17T08:11:55.925Z,100388.69
2023-02-17T08:14:23.870Z,100392.25
2023-02-17T08:16:50.620Z,100390.50
2023-02-17T08:19:17.564Z,100386.97
2023-02-17T08:21:44.179Z,100375.53
2023-02-17T08:24:10.810Z,100380.84
2023-02-17T08:26:37.395Z,100378.25
2023-02-17T08:29:04.486Z,100382.69
2023-02-17T08:31:33.393Z,100368.56
2023-02-17T08:34:02.168Z,100366.84
2023-02-17T08:36:29.590Z,100389.81
2023-02-17T08:38:56.933Z,100375.72
2023-02-17T08:41:30.764Z,100362.50
2023-02-17T08:44:00.109Z,100359.84
2023-02-17T08:46:28.334Z,100347.53
2023-02-17T08:48:56.346Z,100342.25
2023-02-17T08:51:28.060Z,100344.94
2023-02-17T08:53:57.091Z,100343.19
2023-02-17T08:56:24.995Z,100341.44
2023-02-17T08:58:52.219Z,100348.50
2023-02-17T09:01:19.321Z,100336.22
2023-02-17T09:03:47.792Z,100343.28
2023-02-17T09:06:15.777Z,100328.28
2023-02-17T09:08:43.713Z,100334.50
2023-02-17T09:11:10.400Z,100332.72
2023-02-17T09:13:37.559Z,100338.94
2023-02-17T09:16:05.055Z,100332.78
2023-02-17T09:18:31.928Z,100318.66
2023-02-17T09:21:00.584Z,100325.72
2023-02-17T09:23:27.521Z,100334.56
2023-02-17T09:26:06.528Z,100330.22
2023-02-17T09:28:35.035Z,100319.66
2023-02-17T09:31:22.427Z,100304.63
2023-02-17T09:33:51.226Z,100310.84
2023-02-17T09:36:21.233Z,100309.97
2023-02-17T09:38:49.108Z,100317.91
2023-02-17T09:41:24.544Z,100324.09
2023-02-17T09:43:52.762Z,100318.78
2023-02-17T09:46:37.468Z,100330.28
2023-02-17T09:49:12.374Z,100310.81
2023-02-17T09:52:04.585Z,100311.69
2023-02-17T09:54:41.261Z,100308.16
2023-02-17T09:57:12.245Z,100299.34
2023-02-17T09:59:46.573Z,100322.31
2023-02-17T10:02:28.119Z,100300.19
2023-02-17T10:05:01.304Z,100298.44
2023-02-17T10:07:36.176Z,100306.38
2023-02-17T10:10:08.517Z,100298.44
2023-02-17T10:12:41.288Z,100297.56
2023-02-17T10:15:19.475Z,100293.16
2023-02-17T10:17:48.684Z,100284.28
2023-02-17T10:20:28.786Z,100288.72
2023-02-17T10:23:01.763Z,100275.44
2023-02-17T10:25:46.518Z,100255.09
2023-02-17T10:28:23.238Z,100273.69
2023-02-17T10:31:02.125Z,100266.63
2023-02-17T10:33:38.094Z,100261.31
2023-02-17T10:36:34.153Z,100252.44
2023-02-17T10:39:13.404Z,100237.41
2023-02-17T10:41:42.197Z,100245.38
2023-02-17T10:44:16.074Z,100231.22
2023-02-17T10:46:44.264Z,100231.22
2023-02-17T10:49:30.205Z,100228.56
2023-02-17T10:52:01.889Z,100233.88
2023-02-17T10:54:37.231Z,100232.09
2023-02-17T10:57:08.127Z,100250.69
2023-02-17T10:59:43.752Z,100238.31
2023-02-17T11:02:25.057Z,100247.13
2023-02-17T11:04:55.027Z,100242.72
2023-02-17T11:07:32.569Z,100240.06
2023-02-17T11:10:03.427Z,100232.09
2023-02-17T11:12:42.322Z,100218.78
2023-02-17T11:15:18.996Z,100238.25
2023-02-17T11:17:47.400Z,100232.97
2023-02-17T11:20:13.911Z,100223.22
2023-02-17T11:22:41.782Z,100209.94
2023-02-17T11:25:23.107Z,100209.06
2023-02-17T11:27:55.306Z,100197.56
2023-02-17T11:30:22.823Z,100207.31
2023-02-17T11:32:49.439Z,100205.50
2023-02-17T11:35:26.803Z,100186.94
2023-02-17T11:38:01.623Z,100188.72
2023-02-17T11:40:31.276Z,100185.16
2023-02-17T11:42:59.921Z,100178.91
2023-02-17T11:45:35.443Z,100178.84
2023-02-17T11:48:20.496Z,100175.25
2023-02-17T11:50:58.441Z,100185.88
2023-02-17T11:54:02.941Z,100161.03
2023-02-17T11:56:34.734Z,100159.28
2023-02-17T11:59:14.831Z,100160.97
2023-02-17T12:02:10.055Z,100142.31
2023-02-17T12:05:19.328Z,100136.97
2023-02-17T12:08:02.848Z,100129.88
2023-02-17T12:10:45.199Z,100116.63
2023-02-17T12:13:34.740Z,100111.25
2023-02-17T12:16:34.346Z,100121.88
2023-02-17T12:19:13.024Z,100124.53
2023-02-17T12:22:03.279Z,100130.66
2023-02-17T12:24:42.955Z,100132.34
2023-02-17T12:27:34.600Z,100126.91
2023-02-17T12:30:19.619Z,100123.38
2023-02-17T12:33:00.415Z,100133.06
2023-02-17T12:35:55.609Z,100136.56
2023-02-17T12:38:37.177Z,100121.50
2023-02-17T12:41:25.314Z,100137.47
2023-02-17T12:43:59.670Z,100139.28
2023-02-17T12:46:32.712Z,100141.97
2023-02-17T12:49:07.550Z,100145.59
2023-02-17T12:51:40.919Z,100153.66
2023-02-17T12:54:33.281Z,100168.78
2023-02-17T12:57:17.333Z,100159.94
2023-02-17T12:59:46.960Z,100156.44
2023-02-17T13:02:31.421Z,100152.94
2023-02-17T13:05:07.000Z,100158.25
2023-02-17T13:07:51.080Z,100160.97
2023-02-17T13:10:30.500Z,100161.84
2023-02-17T13:13:04.833Z,100175.19
2023-02-17T13:15:35.069Z,100153.03
2023-02-17T13:18:24.488Z,100137.13
2023-02-17T13:20:54.601Z,100149.53
2023-02-17T13:24:26.261Z,100156.63
2023-02-17T13:26:52.702Z,100177.91
2023-02-17T13:29:25.139Z,100161.09
2023-02-17T13:31:57.845Z,100174.38
2023-02-17T13:34:39.594Z,100166.44
2023-02-17T13:37:18.097Z,100167.34
2023-02-17T13:39:45.818Z,100192.16
2023-02-17T13:42:42.092Z,100192.16
2023-02-17T13:45:25.030Z,100193.09
2023-02-17T13:47:57.471Z,100216.09
2023-02-17T13:50:28.096Z,100205.47
2023-02-17T13:52:55.686Z,100216.09
2023-02-17T13:55:25.875Z,100204.63
2023-02-17T13:57:54.770Z,100208.16
2023-02-17T14:00:21.666Z,100212.63
2023-02-17T14:02:51.814Z,100222.34
2023-02-17T14:05:41.676Z,100228.56
2023-02-17T14:08:14.995Z,100221.50
2023-02-17T14:10:41.619Z,100225.94
2023-02-17T14:13:12.214Z,100228.56
2023-02-17T14:15:53.368Z,100217.09
2023-02-17T14:18:36.744Z,100228.56
2023-02-17T14:21:10.836Z,100239.19
2023-02-17T14:23:49.803Z,100226.81
2023-02-17T14:26:31.481Z,100233.91
2023-02-17T14:29:01.387Z,100237.41
2023-02-17T14:31:28.509Z,100252.44
2023-02-17T14:34:00.633Z,100241.84
2023-02-17T14:36:37.262Z,100244.50
2023-02-17T14:39:07.611Z,100241.81
2023-02-17T14:41:34.960Z,100250.63
2023-02-17T14:44:01.524Z,100237.38
2023-02-17T14:46:28.374Z,100243.59
2023-02-17T14:48:56.285Z,100233.84
2023-02-17T14:51:25.434Z,100232.06
2023-02-17T14:53:52.516Z,100245.28
2023-02-17T14:56:27.125Z,100238.22
2023-02-17T14:58:53.772Z,100243.44
2023-02-17T15:01:22.221Z,100245.19
2023-02-17T15:03:49.075Z,100255.75
2023-02-17T15:06:18.492Z,100246.91
2023-02-17T15:08:49.044Z,100257.50
2023-02-17T15:11:30.240Z,100261.03
2023-02-17T15:13:56.940Z,100266.31
2023-02-17T15:16:23.571Z,100262.81
2023-02-17T15:18:50.974Z,100278.69
2023-02-17T15:21:36.503Z,100288.38
2023-02-17T15:24:06.381Z,100283.94
2023-02-17T15:26:32.866Z,100277.78
2023-02-17T15:28:59.951Z,100279.56
2023-02-17T15:31:32.236Z,100281.34
2023-02-17T15:34:00.692Z,100286.63
2023-02-17T15:36:28.520Z,100284.88
2023-02-17T15:38:55.211Z,100305.22
2023-02-17T15:41:25.707Z,100285.81
2023-02-17T15:43:55.681Z,100296.41
2023-02-17T15:46:28.862Z,100306.13
2023-02-17T15:48:55.437Z,100296.41
2023-02-17T15:51:23.363Z,100297.28
2023-02-17T15:53:50.295Z,100307.88
2023-02-17T15:56:29.891Z,100310.56
2023-02-17T15:58:58.033Z,100321.19
2023-02-17T16:01:32.723Z,100298.25
2023-02-17T16:03:59.564Z,100311.50
2023-02-17T16:06:27.278Z,100316.78
2023-02-17T16:08:54.100Z,100304.38
2023-02-17T16:11:22.542Z,100304.38
2023-02-17T16:13:49.704Z,100310.53
2023-02-17T16:16:25.251Z,100319.38
2023-02-17T16:18:52.611Z,100321.16
2023-02-17T16:21:19.246Z,100310.56
2023-02-17T16:23:46.078Z,100301.75
2023-02-17T16:26:26.144Z,100287.66
2023-02-17T16:28:52.812Z,100312.41
2023-02-17T16:31:19.661Z,100315.06
2023-02-17T16:33:46.525Z,100334.53
2023-02-17T16:36:18.677Z,100322.16
2023-02-17T16:38:48.618Z,100340.72
2023-02-17T16:41:18.542Z,100307.16
2023-02-17T16:43:46.273Z,100323.03
2023-02-17T16:46:27.288Z,100318.59
2023-02-17T16:48:53.928Z,100321.25
2023-02-17T16:51:21.206Z,100320.38
2023-02-17T16:53:47.693Z,100323.03
2023-02-17T16:56:21.124Z,100311.53
2023-02-17T16:58:47.641Z,100327.44
2023-02-17T17:01:14.159Z,100308.00
2023-02-17T17:03:42.310Z,100308.88
2023-02-17T17:06:29.993Z,100316.78
2023-02-17T17:08:57.064Z,100325.63
2023-02-17T17:11:26.257Z,100326.53
2023-02-17T17:13:52.945Z,100338.03
2023-02-17T17:16:24.703Z,100321.25
2023-02-17T17:18:51.906Z,100342.47
2023-02-17T17:21:20.101Z,100353.97
2023-02-17T17:23:47.034Z,100334.53
2023-02-17T17:26:26.175Z,100339.81
2023-02-17T17:28:53.994Z,100335.41
2023-02-17T17:31:21.387Z,100344.22
2023-02-17T17:33:52.295Z,100345.97
2023-02-17T17:36:31.240Z,100344.22
2023-02-17T17:38:59.107Z,100327.44
2023-02-17T17:41:28.218Z,100328.28
2023-02-17T17:43:55.667Z,100345.97
2023-02-17T17:46:30.986Z,100353.03
2023-02-17T17:48:59.531Z,100345.97
2023-02-17T17:51:28.195Z,100338.94
2023-02-17T17:53:55.825Z,100347.72
2023-02-17T17:56:28.341Z,100365.38
2023-02-17T17:58:56.451Z,100388.22
2023-02-17T18:01:23.326Z,100397.81
2023-02-17T18:03:50.757Z,100421.59
2023-02-17T18:06:27.061Z,100432.94
2023-02-17T18:08:56.805Z,100449.53
2023-02-17T18:11:24.561Z,100448.47
2023-02-17T18:13:54.921Z,100459.88
2023-02-17T18:16:24.595Z,100459.69
2023-02-17T18:18:51.762Z,100490.38
2023-02-17T18:21:18.337Z,100470.81
2023-02-17T18:23:45.293Z,100475.06
2023-02-17T18:26:12.472Z,100484.63
2023-02-17T18:28:39.211Z,100482.75
2023-02-17T18:31:18.673Z,100487.97
2023-02-17T18:33:45.358Z,100500.16
2023-02-17T18:36:17.554Z,100486.81
2023-02-17T18:38:44.718Z,100492.81
2023-02-17T18:41:26.428Z,100489.13
2023-02-17T18:43:55.615Z,100501.22
2023-02-17T18:46:22.108Z,100499.31
2023-02-17T18:48:49.242Z,100498.31
2023-02-17T18:51:19.322Z,100513.13
2023-02-17T18:53:45.797Z,100533.19
2023-02-17T18:56:15.280Z,100531.31
2023-02-17T18:58:41.944Z,100522.38
2023-02-17T19:01:18.783Z,100537.13
2023-02-17T19:03:45.513Z,100551.94
2023-02-17T19:06:15.906Z,100547.44
2023-02-17T19:08:43.527Z,100547.41
2023-02-17T19:11:10.242Z,100549.97
2023-02-17T19:13:38.958Z,100557.81
2023-02-17T19:16:14.162Z,100562.13
2023-02-17T19:18:43.102Z,100569.13
2023-02-17T19:21:11.419Z,100570.06
2023-02-17T19:23:38.366Z,100564.69
2023-02-17T19:26:07.569Z,100596.38
2023-02-17T19:28:35.954Z,100575.19
2023-02-17T19:31:05.494Z,100583.88
2023-02-17T19:33:32.353Z,100588.28
2023-02-17T19:35:58.880Z,100595.28
2023-02-17T19:38:25.616Z,100596.97
2023-02-17T19:40:52.074Z,100597.75
2023-02-17T19:43:18.630Z,100615.28
2023-02-17T19:45:46.602Z,100613.53
2023-02-17T19:48:13.154Z,100623.09
2023-02-17T19:50:40.319Z,100623.97
2023-02-17T19:53:07.571Z,100631.88
2023-02-17T19:55:34.087Z,100628.34
2023-02-17T19:58:00.650Z,100626.50
2023-02-17T20:00:27.254Z,100655.44
2023-02-17T20:02:54.896Z,100652.69
2023-02-17T20:05:21.425Z,100649.09
2023-02-17T20:07:48.368Z,100656.03
2023-02-17T20:10:14.977Z,100655.97
2023-02-17T20:12:41.635Z,100654.16
2023-02-17T20:15:09.102Z,100682.13
2023-02-17T20:17:35.628Z,100678.56
2023-02-17T20:20:02.149Z,100673.22
2023-02-17T20:22:28.726Z,100687.22
2023-02-17T20:24:55.283Z,100691.50
2023-02-17T20:27:22.637Z,100693.16
2023-02-17T20:29:49.204Z,100695.00
2023-02-17T20:32:15.765Z,100711.63
2023-02-17T20:34:42.322Z,100707.31
2023-02-17T20:37:09.841Z,100702.81
2023-02-17T20:39:38.525Z,100713.28
2023-02-17T20:42:05.451Z,100719.41
2023-02-17T20:44:32.062Z,100709.63
2023-02-17T20:46:59.069Z,100711.53
2023-02-17T20:49:25.829Z,100711.50
2023-02-17T20:51:52.682Z,100718.53
2023-02-17T20:54:19.613Z,100719.44
2023-02-17T20:56:47.399Z,100725.50
2023-02-17T20:59:14.856Z,100725.53
2023-02-17T21:01:41.935Z,100718.53
2023-02-17T21:04:09.738Z,100738.69
2023-02-17T21:06:43.346Z,100745.59
2023-02-17T21:09:14.791Z,100739.38
2023-02-17T21:11:41.458Z,100741.97
2023-02-17T21:14:08.395Z,100740.22
2023-02-17T21:16:35.835Z,100750.75
2023-02-17T21:19:04.113Z,100746.44
2023-02-17T21:21:31.961Z,100753.47
2023-02-17T21:24:00.722Z,100746.47
2023-02-17T21:26:27.564Z,100744.78
2023-02-17T21:28:56.056Z,100756.13
2023-02-17T21:31:22.697Z,100757.94
2023-02-17T21:33:49.148Z,100753.53
2023-02-17T21:36:18.873Z,100749.97
2023-02-17T21:38:45.967Z,100756.09
2023-02-17T21:41:17.016Z,100756.03
2023-02-17T21:44:03.130Z,100754.13
2023-02-17T21:46:31.365Z,100762.06
2023-02-17T21:48:59.797Z,100770.91
2023-02-17T21:51:27.104Z,100770.78
2023-02-17T21:53:54.025Z,100774.28
2023-02-17T21:56:22.854Z,100772.53
2023-02-17T21:58:52.470Z,100781.22
2023-02-17T22:01:20.747Z,100783.81
2023-02-17T22:03:47.448Z,100781.16
2023-02-17T22:06:14.802Z,100782.06
2023-02-17T22:08:41.421Z,100789.91
2023-02-17T22:11:23.550Z,100796.06
2023-02-17T22:13:53.860Z,100797.72
2023-02-17T22:16:20.486Z,100801.16
2023-02-17T22:18:46.985Z,100798.44
2023-02-17T22:21:14.111Z,100800.13
2023-02-17T22:23:41.908Z,100809.72
2023-02-17T22:26:15.852Z,100803.59
2023-02-17T22:28:43.273Z,100803.59
2023-02-17T22:31:13.869Z,100807.09
2023-02-17T22:33:40.785Z,100801.72
2023-02-17T22:36:10.611Z,100806.97
2023-02-17T22:38:38.493Z,100802.53
2023-02-17T22:41:10.822Z,100810.44
2023-02-17T22:43:40.335Z,100812.19
2023-02-17T22:46:08.277Z,100813.03
2023-02-17T22:48:37.285Z,100805.09
2023-02-17T22:51:06.748Z,100800.63
2023-02-17T22:53:36.397Z,100807.66
2023-02-17T22:56:04.596Z,100806.72
2023-02-17T22:58:31.278Z,100803.22
2023-02-17T23:01:07.157Z,100821.59
2023-02-17T23:03:34.870Z,100829.53
2023-02-17T23:06:08.587Z,100824.38
2023-02-17T23:08:35.554Z,100841.03
2023-02-17T23:11:06.581Z,100839.22
2023-02-17T23:13:34.066Z,100832.16
2023-02-17T23:16:02.244Z,100835.69
2023-02-17T23:18:30.994Z,100833.03
2023-02-17T23:20:58.053Z,100835.53
2023-02-17T23:23:26.931Z,100826.75
2023-02-17T23:25:55.552Z,100837.25
2023-02-17T23:28:24.386Z,100828.50
2023-02-17T23:30:51.405Z,100833.78
2023-02-17T23:33:20.148Z,100830.19
2023-02-17T23:35:47.723Z,100835.47
2023-02-17T23:38:17.116Z,100827.56
2023-02-17T23:40:49.233Z,100830.16
2023-02-17T23:43:15.828Z,100831.03
2023-02-17T23:45:42.580Z,100839.72
2023-02-17T23:48:09.131Z,100835.34
2023-02-17T23:50:35.648Z,100840.53
2023-02-17T23:53:02.190Z,100837.03
2023-02-17T23:55:28.710Z,100843.16
2023-02-17T23:57:55.185Z,100846.75
